sensor_id;sensor_type;location;lat;lon;timestamp;pressure;altitude;pressure_sealevel;temperature;humidity
11692;BME280;33659;42.672;23.354;2023-05-02T00:00:41;94683.69;;;15.14;57.91
11692;BME280;33659;42.672;23.354;2023-05-02T00:03:10;94681.44;;;15.16;57.90
11692;BME280;33659;42.672;23.354;2023-05-02T00:05:38;94686.78;;;15.20;58.08
11692;BME280;33659;42.672;23.354;2023-05-02T00:08:05;94684.78;;;15.13;58.06
11692;BME280;33659;42.672;23.354;2023-05-02T00:10:32;94688.09;;;14.91;58.56
11692;BME280;33659;42.672;23.354;2023-05-02T00:12:58;94684.50;;;14.80;58.96
11692;BME280;33659;42.672;23.354;2023-05-02T00:15:25;94689.25;;;14.74;59.33
11692;BME280;33659;42.672;23.354;2023-05-02T00:17:52;94681.94;;;14.64;59.47
11692;BME280;33659;42.672;23.354;2023-05-02T00:20:19;94683.59;;;14.37;60.45
11692;BME280;33659;42.672;23.354;2023-05-02T00:22:47;94682.28;;;14.12;61.23
11692;BME280;33659;42.672;23.354;2023-05-02T00:25:14;94688.00;;;13.98;61.78
11692;BME280;33659;42.672;23.354;2023-05-02T00:27:41;94696.72;;;13.86;62.33
11692;BME280;33659;42.672;23.354;2023-05-02T00:30:08;94686.47;;;13.81;62.54
11692;BME280;33659;42.672;23.354;2023-05-02T00:32:35;94690.78;;;13.73;62.77
11692;BME280;33659;42.672;23.354;2023-05-02T00:35:02;94695.19;;;13.69;63.10
11692;BME280;33659;42.672;23.354;2023-05-02T00:37:29;94701.44;;;13.65;63.10
11692;BME280;33659;42.672;23.354;2023-05-02T00:39:57;94700.75;;;13.68;63.28
11692;BME280;33659;42.672;23.354;2023-05-02T00:42:24;94703.22;;;13.61;63.54
11692;BME280;33659;42.672;23.354;2023-05-02T00:44:50;94708.44;;;13.45;64.36
11692;BME280;33659;42.672;23.354;2023-05-02T00:47:17;94713.72;;;13.33;64.68
11692;BME280;33659;42.672;23.354;2023-05-02T00:49:44;94714.09;;;13.19;65.52
11692;BME280;33659;42.672;23.354;2023-05-02T00:52:10;94704.94;;;13.13;65.73
11692;BME280;33659;42.672;23.354;2023-05-02T00:54:37;94714.25;;;13.10;66.12
11692;BME280;33659;42.672;23.354;2023-05-02T00:57:06;94708.66;;;13.12;66.21
11692;BME280;33659;42.672;23.354;2023-05-02T00:59:33;94716.97;;;13.14;66.05
11692;BME280;33659;42.672;23.354;2023-05-02T01:02:09;94701.91;;;13.11;66.26
11692;BME280;33659;42.672;23.354;2023-05-02T01:04:42;94695.78;;;13.07;66.55
11692;BME280;33659;42.672;23.354;2023-05-02T01:07:22;94708.91;;;13.07;66.81
11692;BME280;33659;42.672;23.354;2023-05-02T01:10:00;94706.63;;;13.05;66.93
11692;BME280;33659;42.672;23.354;2023-05-02T01:12:35;94705.44;;;13.02;67.18
11692;BME280;33659;42.672;23.354;2023-05-02T01:15:07;94707.31;;;13.02;67.38
11692;BME280;33659;42.672;23.354;2023-05-02T01:17:35;94712.84;;;13.00;67.43
11692;BME280;33659;42.672;23.354;2023-05-02T01:20:07;94709.16;;;13.01;67.39
11692;BME280;33659;42.672;23.354;2023-05-02T01:22:37;94708.06;;;13.02;67.54
11692;BME280;33659;42.672;23.354;2023-05-02T01:25:14;94701.03;;;13.07;67.41
11692;BME280;33659;42.672;23.354;2023-05-02T01:27:52;94695.13;;;13.10;67.16
11692;BME280;33659;42.672;23.354;2023-05-02T01:30:26;94704.09;;;13.21;66.91
11692;BME280;33659;42.672;23.354;2023-05-02T01:32:54;94697.25;;;13.32;66.50
11692;BME280;33659;42.672;23.354;2023-05-02T01:35:23;94693.63;;;13.37;66.40
11692;BME280;33659;42.672;23.354;2023-05-02T01:37:51;94697.41;;;13.39;66.37
11692;BME280;33659;42.672;23.354;2023-05-02T01:40:20;94703.34;;;13.36;66.47
11692;BME280;33659;42.672;23.354;2023-05-02T01:42:50;94704.19;;;13.12;67.16
11692;BME280;33659;42.672;23.354;2023-05-02T01:45:20;94708.28;;;12.97;67.78
11692;BME280;33659;42.672;23.354;2023-05-02T01:47:48;94701.22;;;12.86;68.42
11692;BME280;33659;42.672;23.354;2023-05-02T01:50:18;94705.41;;;12.74;69.04
11692;BME280;33659;42.672;23.354;2023-05-02T01:52:46;94710.91;;;12.69;69.04
11692;BME280;33659;42.672;23.354;2023-05-02T01:55:15;94710.03;;;12.65;69.45
11692;BME280;33659;42.672;23.354;2023-05-02T01:57:45;94701.75;;;12.63;69.55
11692;BME280;33659;42.672;23.354;2023-05-02T02:00:15;94699.22;;;12.55;70.01
11692;BME280;33659;42.672;23.354;2023-05-02T02:02:44;94702.53;;;12.52;69.96
11692;BME280;33659;42.672;23.354;2023-05-02T02:05:13;94701.22;;;12.45;70.39
11692;BME280;33659;42.672;23.354;2023-05-02T02:07:42;94689.31;;;12.36;70.49
11692;BME280;33659;42.672;23.354;2023-05-02T02:10:09;94693.19;;;12.26;71.15
11692;BME280;33659;42.672;23.354;2023-05-02T02:12:40;94691.97;;;12.24;71.36
11692;BME280;33659;42.672;23.354;2023-05-02T02:15:12;94699.72;;;12.20;71.67
11692;BME280;33659;42.672;23.354;2023-05-02T02:17:45;94696.97;;;12.16;71.62
11692;BME280;33659;42.672;23.354;2023-05-02T02:20:15;94695.78;;;12.26;71.52
11692;BME280;33659;42.672;23.354;2023-05-02T02:22:43;94693.25;;;12.30;71.25
11692;BME280;33659;42.672;23.354;2023-05-02T02:25:12;94694.47;;;12.32;71.21
11692;BME280;33659;42.672;23.354;2023-05-02T02:27:40;94707.22;;;12.34;71.01
11692;BME280;33659;42.672;23.354;2023-05-02T02:30:07;94696.88;;;12.37;70.75
11692;BME280;33659;42.672;23.354;2023-05-02T02:32:34;94700.91;;;12.35;70.74
11692;BME280;33659;42.672;23.354;2023-05-02T02:35:01;94697.63;;;12.38;70.95
11692;BME280;33659;42.672;23.354;2023-05-02T02:37:31;94704.25;;;12.47;70.56
11692;BME280;33659;42.672;23.354;2023-05-02T02:40:04;94703.63;;;12.51;70.41
11692;BME280;33659;42.672;23.354;2023-05-02T02:42:38;94704.91;;;12.57;70.01
11692;BME280;33659;42.672;23.354;2023-05-02T02:45:16;94714.06;;;12.63;69.70
11692;BME280;33659;42.672;23.354;2023-05-02T02:47:49;94696.31;;;12.56;69.65
11692;BME280;33659;42.672;23.354;2023-05-02T02:50:27;94706.53;;;12.61;69.42
11692;BME280;33659;42.672;23.354;2023-05-02T02:53:01;94714.59;;;12.68;69.53
11692;BME280;33659;42.672;23.354;2023-05-02T02:55:35;94716.97;;;12.73;69.29
11692;BME280;33659;42.672;23.354;2023-05-02T02:58:14;94713.16;;;12.83;68.94
11692;BME280;33659;42.672;23.354;2023-05-02T03:00:45;94723.34;;;13.00;68.13
11692;BME280;33659;42.672;23.354;2023-05-02T03:03:14;94715.06;;;12.98;68.10
11692;BME280;33659;42.672;23.354;2023-05-02T03:05:41;94722.97;;;12.86;68.45
11692;BME280;33659;42.672;23.354;2023-05-02T03:08:10;94729.78;;;12.63;69.18
11692;BME280;33659;42.672;23.354;2023-05-02T03:10:37;94728.28;;;12.50;69.72
11692;BME280;33659;42.672;23.354;2023-05-02T03:13:04;94728.59;;;12.48;69.74
11692;BME280;33659;42.672;23.354;2023-05-02T03:18:30;94734.59;;;12.48;70.00
11692;BME280;33659;42.672;23.354;2023-05-02T03:20:57;94742.16;;;12.50;69.97
11692;BME280;33659;42.672;23.354;2023-05-02T03:23:26;94744.63;;;12.59;69.55
11692;BME280;33659;42.672;23.354;2023-05-02T03:25:53;94749.53;;;12.72;69.56
11692;BME280;33659;42.672;23.354;2023-05-02T03:28:20;94749.16;;;12.86;68.88
11692;BME280;33659;42.672;23.354;2023-05-02T03:30:46;94748.03;;;12.99;68.61
11692;BME280;33659;42.672;23.354;2023-05-02T03:33:13;94746.91;;;13.13;67.83
11692;BME280;33659;42.672;23.354;2023-05-02T03:35:39;94754.75;;;13.25;67.49
11692;BME280;33659;42.672;23.354;2023-05-02T03:38:07;94753.94;;;13.37;67.17
11692;BME280;33659;42.672;23.354;2023-05-02T03:40:35;94757.28;;;13.49;66.77
11692;BME280;33659;42.672;23.354;2023-05-02T03:43:02;94739.84;;;13.57;65.98
11692;BME280;33659;42.672;23.354;2023-05-02T03:45:29;94746.91;;;13.69;65.92
11692;BME280;33659;42.672;23.354;2023-05-02T03:47:55;94752.50;;;13.83;66.18
11692;BME280;33659;42.672;23.354;2023-05-02T03:50:22;94757.09;;;13.86;65.18
11692;BME280;33659;42.672;23.354;2023-05-02T03:52:49;94751.41;;;13.84;65.00
11692;BME280;33659;42.672;23.354;2023-05-02T03:55:16;94759.47;;;13.91;64.84
11692;BME280;33659;42.672;23.354;2023-05-02T03:57:44;94755.75;;;13.92;64.35
11692;BME280;33659;42.672;23.354;2023-05-02T04:00:11;94757.91;;;13.74;64.87
11692;BME280;33659;42.672;23.354;2023-05-02T04:02:38;94751.22;;;13.77;64.93
11692;BME280;33659;42.672;23.354;2023-05-02T04:05:05;94751.38;;;13.68;64.84
11692;BME280;33659;42.672;23.354;2023-05-02T04:07:32;94751.28;;;13.65;65.09
11692;BME280;33659;42.672;23.354;2023-05-02T04:09:59;94747.88;;;13.48;65.45
11692;BME280;33659;42.672;23.354;2023-05-02T04:12:26;94758.44;;;13.36;65.99
11692;BME280;33659;42.672;23.354;2023-05-02T04:14:54;94762.81;;;13.20;66.28
11692;BME280;33659;42.672;23.354;2023-05-02T04:17:20;94759.94;;;13.09;66.91
11692;BME280;33659;42.672;23.354;2023-05-02T04:19:47;94754.88;;;13.16;66.86
11692;BME280;33659;42.672;23.354;2023-05-02T04:22:14;94754.00;;;13.24;66.66
11692;BME280;33659;42.672;23.354;2023-05-02T04:24:41;94750.78;;;13.31;65.94
11692;BME280;33659;42.672;23.354;2023-05-02T04:27:07;94757.44;;;13.41;65.59
11692;BME280;33659;42.672;23.354;2023-05-02T04:29:34;94751.63;;;13.47;65.12
11692;BME280;33659;42.672;23.354;2023-05-02T04:32:02;94755.34;;;13.46;65.21
11692;BME280;33659;42.672;23.354;2023-05-02T04:34:29;94759.50;;;13.47;65.17
11692;BME280;33659;42.672;23.354;2023-05-02T04:36:55;94764.09;;;13.38;65.13
11692;BME280;33659;42.672;23.354;2023-05-02T04:39:22;94775.94;;;13.32;65.37
11692;BME280;33659;42.672;23.354;2023-05-02T04:41:48;94768.41;;;13.18;65.64
11692;BME280;33659;42.672;23.354;2023-05-02T04:44:15;94769.16;;;13.19;65.77
11692;BME280;33659;42.672;23.354;2023-05-02T04:46:42;94762.06;;;13.19;65.62
11692;BME280;33659;42.672;23.354;2023-05-02T04:49:10;94765.25;;;13.25;65.44
11692;BME280;33659;42.672;23.354;2023-05-02T04:51:37;94766.47;;;13.27;65.48
11692;BME280;33659;42.672;23.354;2023-05-02T04:54:03;94763.91;;;13.31;64.93
11692;BME280;33659;42.672;23.354;2023-05-02T04:56:30;94771.03;;;13.31;65.06
11692;BME280;33659;42.672;23.354;2023-05-02T04:58:57;94769.66;;;13.21;64.67
11692;BME280;33659;42.672;23.354;2023-05-02T05:01:23;94774.97;;;13.24;64.96
11692;BME280;33659;42.672;23.354;2023-05-02T05:03:52;94771.25;;;13.25;64.82
11692;BME280;33659;42.672;23.354;2023-05-02T05:06:20;94768.41;;;13.31;64.95
11692;BME280;33659;42.672;23.354;2023-05-02T05:08:46;94765.53;;;13.36;64.63
11692;BME280;33659;42.672;23.354;2023-05-02T05:11:13;94766.41;;;13.40;64.01
11692;BME280;33659;42.672;23.354;2023-05-02T05:13:41;94762.81;;;13.20;64.28
11692;BME280;33659;42.672;23.354;2023-05-02T05:16:08;94760.16;;;13.04;64.29
11692;BME280;33659;42.672;23.354;2023-05-02T05:18:35;94769.78;;;13.00;64.85
11692;BME280;33659;42.672;23.354;2023-05-02T05:21:04;94764.66;;;12.91;64.54
11692;BME280;33659;42.672;23.354;2023-05-02T05:23:33;94773.84;;;12.85;64.37
11692;BME280;33659;42.672;23.354;2023-05-02T05:26:07;94769.22;;;12.94;64.32
11692;BME280;33659;42.672;23.354;2023-05-02T05:28:34;94776.25;;;12.90;64.08
11692;BME280;33659;42.672;23.354;2023-05-02T05:31:04;94776.59;;;12.77;64.58
11692;BME280;33659;42.672;23.354;2023-05-02T05:33:31;94779.84;;;12.86;64.40
11692;BME280;33659;42.672;23.354;2023-05-02T05:36:03;94782.91;;;12.88;64.25
11692;BME280;33659;42.672;23.354;2023-05-02T05:38:30;94785.53;;;12.88;64.19
11692;BME280;33659;42.672;23.354;2023-05-02T05:40:57;94780.97;;;12.85;64.34
11692;BME280;33659;42.672;23.354;2023-05-02T05:43:24;94785.13;;;12.73;64.64
11692;BME280;33659;42.672;23.354;2023-05-02T05:45:51;94788.84;;;12.72;64.69
11692;BME280;33659;42.672;23.354;2023-05-02T05:48:18;94792.75;;;12.79;64.39
11692;BME280;33659;42.672;23.354;2023-05-02T05:50:45;94791.31;;;12.81;64.39
11692;BME280;33659;42.672;23.354;2023-05-02T05:53:12;94792.97;;;12.73;64.87
11692;BME280;33659;42.672;23.354;2023-05-02T05:55:39;94790.34;;;12.86;64.17
11692;BME280;33659;42.672;23.354;2023-05-02T05:58:07;94794.59;;;12.90;63.66
11692;BME280;33659;42.672;23.354;2023-05-02T06:00:34;94802.47;;;12.90;64.03
11692;BME280;33659;42.672;23.354;2023-05-02T06:03:01;94797.19;;;13.02;63.68
11692;BME280;33659;42.672;23.354;2023-05-02T06:05:28;94801.53;;;13.23;63.71
11692;BME280;33659;42.672;23.354;2023-05-02T06:07:55;94800.81;;;13.38;63.00
11692;BME280;33659;42.672;23.354;2023-05-02T06:10:22;94805.03;;;13.27;62.45
11692;BME280;33659;42.672;23.354;2023-05-02T06:12:49;94805.88;;;13.19;62.32
11692;BME280;33659;42.672;23.354;2023-05-02T06:15:17;94802.16;;;13.20;62.12
11692;BME280;33659;42.672;23.354;2023-05-02T06:17:44;94801.09;;;13.33;62.35
11692;BME280;33659;42.672;23.354;2023-05-02T06:20:11;94787.28;;;13.36;61.89
11692;BME280;33659;42.672;23.354;2023-05-02T06:22:37;94787.66;;;13.22;61.42
11692;BME280;33659;42.672;23.354;2023-05-02T06:25:05;94790.91;;;13.19;62.11
11692;BME280;33659;42.672;23.354;2023-05-02T06:27:33;94792.50;;;13.20;61.83
11692;BME280;33659;42.672;23.354;2023-05-02T06:30:00;94783.72;;;13.16;61.85
11692;BME280;33659;42.672;23.354;2023-05-02T06:32:30;94794.97;;;13.17;62.03
11692;BME280;33659;42.672;23.354;2023-05-02T06:34:57;94799.13;;;13.18;61.89
11692;BME280;33659;42.672;23.354;2023-05-02T06:37:23;94793.34;;;13.24;61.22
11692;BME280;33659;42.672;23.354;2023-05-02T06:39:50;94792.44;;;13.33;60.79
11692;BME280;33659;42.672;23.354;2023-05-02T06:42:17;94797.09;;;13.39;60.38
11692;BME280;33659;42.672;23.354;2023-05-02T06:44:43;94798.91;;;13.51;60.32
11692;BME280;33659;42.672;23.354;2023-05-02T06:47:10;94784.03;;;13.55;59.58
11692;BME280;33659;42.672;23.354;2023-05-02T06:49:38;94783.06;;;13.75;59.79
11692;BME280;33659;42.672;23.354;2023-05-02T06:52:05;94793.84;;;13.86;59.11
11692;BME280;33659;42.672;23.354;2023-05-02T06:54:31;94792.75;;;13.87;58.76
11692;BME280;33659;42.672;23.354;2023-05-02T06:56:58;94798.69;;;14.00;58.02
11692;BME280;33659;42.672;23.354;2023-05-02T06:59:26;94785.47;;;14.12;58.16
11692;BME280;33659;42.672;23.354;2023-05-02T07:01:53;94785.47;;;14.28;57.87
11692;BME280;33659;42.672;23.354;2023-05-02T07:04:19;94780.47;;;14.23;56.72
11692;BME280;33659;42.672;23.354;2023-05-02T07:06:47;94789.91;;;14.24;56.93
11692;BME280;33659;42.672;23.354;2023-05-02T07:09:14;94775.47;;;14.33;56.62
11692;BME280;33659;42.672;23.354;2023-05-02T07:11:41;94781.41;;;14.30;55.81
11692;BME280;33659;42.672;23.354;2023-05-02T07:14:07;94787.94;;;14.21;56.57
11692;BME280;33659;42.672;23.354;2023-05-02T07:16:34;94789.63;;;14.29;55.88
11692;BME280;33659;42.672;23.354;2023-05-02T07:19:01;94789.31;;;14.46;55.48
11692;BME280;33659;42.672;23.354;2023-05-02T07:21:28;94789.88;;;14.55;54.68
11692;BME280;33659;42.672;23.354;2023-05-02T07:23:58;94789.47;;;14.53;54.58
11692;BME280;33659;42.672;23.354;2023-05-02T07:26:25;94789.19;;;14.58;54.56
11692;BME280;33659;42.672;23.354;2023-05-02T07:28:52;94792.22;;;14.76;54.03
11692;BME280;33659;42.672;23.354;2023-05-02T07:31:18;94786.38;;;14.67;53.95
11692;BME280;33659;42.672;23.354;2023-05-02T07:33:45;94787.59;;;14.70;54.13
11692;BME280;33659;42.672;23.354;2023-05-02T07:36:12;94789.59;;;14.76;53.07
11692;BME280;33659;42.672;23.354;2023-05-02T07:38:38;94791.28;;;14.84;53.20
11692;BME280;33659;42.672;23.354;2023-05-02T07:41:06;94785.28;;;15.03;53.44
11692;BME280;33659;42.672;23.354;2023-05-02T07:43:33;94787.44;;;15.17;52.26
11692;BME280;33659;42.672;23.354;2023-05-02T07:46:03;94786.75;;;15.20;51.66
11692;BME280;33659;42.672;23.354;2023-05-02T07:48:30;94791.22;;;15.20;52.12
11692;BME280;33659;42.672;23.354;2023-05-02T07:51:04;94777.66;;;15.17;51.66
11692;BME280;33659;42.672;23.354;2023-05-02T07:53:31;94790.06;;;15.36;51.77
11692;BME280;33659;42.672;23.354;2023-05-02T07:55:58;94789.19;;;15.48;51.51
11692;BME280;33659;42.672;23.354;2023-05-02T07:58:26;94789.53;;;15.66;51.09
11692;BME280;33659;42.672;23.354;2023-05-02T08:00:53;94786.81;;;15.82;50.27
11692;BME280;33659;42.672;23.354;2023-05-02T08:03:19;94787.63;;;15.86;50.35
11692;BME280;33659;42.672;23.354;2023-05-02T08:05:46;94782.88;;;15.95;50.06
11692;BME280;33659;42.672;23.354;2023-05-02T08:08:13;94784.25;;;16.08;49.70
11692;BME280;33659;42.672;23.354;2023-05-02T08:10:39;94785.88;;;16.16;49.52
11692;BME280;33659;42.672;23.354;2023-05-02T08:13:06;94785.38;;;16.30;48.92
11692;BME280;33659;42.672;23.354;2023-05-02T08:15:34;94794.66;;;16.47;48.55
11692;BME280;33659;42.672;23.354;2023-05-02T08:18:01;94784.72;;;16.63;47.46
11692;BME280;33659;42.672;23.354;2023-05-02T08:20:28;94794.38;;;16.78;47.49
11692;BME280;33659;42.672;23.354;2023-05-02T08:22:54;94775.91;;;16.78;46.98
11692;BME280;33659;42.672;23.354;2023-05-02T08:25:21;94776.44;;;16.88;46.55
11692;BME280;33659;42.672;23.354;2023-05-02T08:27:48;94785.97;;;16.96;46.19
11692;BME280;33659;42.672;23.354;2023-05-02T08:30:14;94774.75;;;17.06;46.07
11692;BME280;33659;42.672;23.354;2023-05-02T08:32:42;94781.69;;;17.14;45.81
11692;BME280;33659;42.672;23.354;2023-05-02T08:35:09;94779.22;;;17.28;45.40
11692;BME280;33659;42.672;23.354;2023-05-02T08:37:37;94770.28;;;17.40;44.46
11692;BME280;33659;42.672;23.354;2023-05-02T08:40:05;94775.66;;;17.47;44.71
11692;BME280;33659;42.672;23.354;2023-05-02T08:42:36;94776.88;;;17.57;44.33
11692;BME280;33659;42.672;23.354;2023-05-02T08:45:07;94778.81;;;17.60;44.06
11692;BME280;33659;42.672;23.354;2023-05-02T08:47:35;94765.91;;;17.55;44.01
11692;BME280;33659;42.672;23.354;2023-05-02T08:50:05;94775.88;;;17.69;44.43
11692;BME280;33659;42.672;23.354;2023-05-02T08:52:32;94770.00;;;17.82;43.98
11692;BME280;33659;42.672;23.354;2023-05-02T08:55:00;94767.84;;;17.95;43.40
11692;BME280;33659;42.672;23.354;2023-05-02T08:57:28;94779.97;;;18.00;43.08
11692;BME280;33659;42.672;23.354;2023-05-02T08:59:55;94747.00;;;17.86;42.81
11692;BME280;33659;42.672;23.354;2023-05-02T09:02:34;94766.75;;;18.00;42.99
11692;BME280;33659;42.672;23.354;2023-05-02T09:05:10;94772.28;;;17.84;42.88
11692;BME280;33659;42.672;23.354;2023-05-02T09:07:45;94765.69;;;17.71;42.97
11692;BME280;33659;42.672;23.354;2023-05-02T09:10:12;94764.25;;;17.73;43.60
11692;BME280;33659;42.672;23.354;2023-05-02T09:12:39;94762.38;;;17.74;43.19
11692;BME280;33659;42.672;23.354;2023-05-02T09:15:10;94769.94;;;17.75;44.16
11692;BME280;33659;42.672;23.354;2023-05-02T09:17:44;94747.78;;;17.87;43.51
11692;BME280;33659;42.672;23.354;2023-05-02T09:20:14;94759.56;;;17.97;42.12
11692;BME280;33659;42.672;23.354;2023-05-02T09:22:47;94764.97;;;18.11;41.94
11692;BME280;33659;42.672;23.354;2023-05-02T09:25:15;94758.19;;;18.13;43.08
11692;BME280;33659;42.672;23.354;2023-05-02T09:27:49;94756.03;;;18.26;42.07
11692;BME280;33659;42.672;23.354;2023-05-02T09:30:18;94755.31;;;18.33;42.02
11692;BME280;33659;42.672;23.354;2023-05-02T09:32:45;94751.97;;;18.36;40.89
11692;BME280;33659;42.672;23.354;2023-05-02T09:35:13;94750.41;;;18.31;41.37
11692;BME280;33659;42.672;23.354;2023-05-02T09:37:50;94751.22;;;18.35;40.99
11692;BME280;33659;42.672;23.354;2023-05-02T09:40:18;94742.94;;;18.48;40.82
11692;BME280;33659;42.672;23.354;2023-05-02T09:42:45;94748.66;;;18.50;41.27
11692;BME280;33659;42.672;23.354;2023-05-02T09:45:19;94750.97;;;18.58;40.57
11692;BME280;33659;42.672;23.354;2023-05-02T09:47:46;94744.25;;;18.68;40.40
11692;BME280;33659;42.672;23.354;2023-05-02T09:50:31;94735.19;;;18.73;39.66
11692;BME280;33659;42.672;23.354;2023-05-02T09:53:05;94735.25;;;18.76;39.74
11692;BME280;33659;42.672;23.354;2023-05-02T09:55:32;94717.84;;;18.75;40.03
11692;BME280;33659;42.672;23.354;2023-05-02T09:57:59;94731.94;;;18.93;39.33
11692;BME280;33659;42.672;23.354;2023-05-02T10:00:40;94733.84;;;19.00;39.87
11692;BME280;33659;42.672;23.354;2023-05-02T10:03:08;94728.22;;;19.09;38.43
11692;BME280;33659;42.672;23.354;2023-05-02T10:05:37;94712.28;;;19.05;38.92
11692;BME280;33659;42.672;23.354;2023-05-02T10:08:05;94724.69;;;18.87;38.33
11692;BME280;33659;42.672;23.354;2023-05-02T10:10:35;94705.38;;;18.79;39.06
11692;BME280;33659;42.672;23.354;2023-05-02T10:13:03;94715.25;;;18.89;39.40
11692;BME280;33659;42.672;23.354;2023-05-02T10:15:31;94706.63;;;19.03;38.56
11692;BME280;33659;42.672;23.354;2023-05-02T10:17:59;94698.31;;;19.12;38.41
11692;BME280;33659;42.672;23.354;2023-05-02T10:20:30;94702.09;;;19.11;38.06
11692;BME280;33659;42.672;23.354;2023-05-02T10:23:00;94714.63;;;19.21;38.58
11692;BME280;33659;42.672;23.354;2023-05-02T10:25:27;94707.50;;;19.32;37.56
11692;BME280;33659;42.672;23.354;2023-05-02T10:27:56;94696.13;;;19.35;37.33
11692;BME280;33659;42.672;23.354;2023-05-02T10:30:24;94702.97;;;19.43;37.57
11692;BME280;33659;42.672;23.354;2023-05-02T10:32:52;94699.22;;;19.55;37.30
11692;BME280;33659;42.672;23.354;2023-05-02T10:35:20;94697.38;;;19.66;37.22
11692;BME280;33659;42.672;23.354;2023-05-02T10:37:47;94692.06;;;19.73;37.21
11692;BME280;33659;42.672;23.354;2023-05-02T10:40:17;94689.41;;;19.77;37.45
11692;BME280;33659;42.672;23.354;2023-05-02T10:42:46;94696.63;;;19.91;36.94
11692;BME280;33659;42.672;23.354;2023-05-02T10:45:29;94687.91;;;20.01;36.00
11692;BME280;33659;42.672;23.354;2023-05-02T10:48:12;94687.16;;;20.18;36.00
11692;BME280;33659;42.672;23.354;2023-05-02T10:50:43;94685.63;;;20.21;36.03
11692;BME280;33659;42.672;23.354;2023-05-02T10:53:31;94688.69;;;20.16;35.39
11692;BME280;33659;42.672;23.354;2023-05-02T10:56:16;94687.91;;;20.22;35.93
11692;BME280;33659;42.672;23.354;2023-05-02T10:58:43;94691.69;;;20.32;35.88
11692;BME280;33659;42.672;23.354;2023-05-02T11:01:32;94679.16;;;20.43;35.74
11692;BME280;33659;42.672;23.354;2023-05-02T11:04:01;94674.25;;;20.56;35.89
11692;BME280;33659;42.672;23.354;2023-05-02T11:06:29;94667.44;;;20.55;35.65
11692;BME280;33659;42.672;23.354;2023-05-02T11:09:31;94675.75;;;20.57;36.04
11692;BME280;33659;42.672;23.354;2023-05-02T11:12:00;94682.56;;;20.58;35.78
11692;BME280;33659;42.672;23.354;2023-05-02T11:14:43;94683.34;;;20.51;35.13
11692;BME280;33659;42.672;23.354;2023-05-02T11:17:11;94679.19;;;20.36;35.94
11692;BME280;33659;42.672;23.354;2023-05-02T11:22:55;94670.47;;;20.46;35.76
11692;BME280;33659;42.672;23.354;2023-05-02T11:25:29;94667.81;;;20.46;36.03
11692;BME280;33659;42.672;23.354;2023-05-02T11:27:58;94668.56;;;20.43;36.12
11692;BME280;33659;42.672;23.354;2023-05-02T11:30:36;94670.84;;;20.45;35.96
11692;BME280;33659;42.672;23.354;2023-05-02T11:33:16;94662.47;;;20.53;35.85
11692;BME280;33659;42.672;23.354;2023-05-02T11:35:45;94665.13;;;20.53;36.00
11692;BME280;33659;42.672;23.354;2023-05-02T11:38:14;94656.06;;;20.51;35.39
11692;BME280;33659;42.672;23.354;2023-05-02T11:40:51;94651.84;;;20.68;35.50
11692;BME280;33659;42.672;23.354;2023-05-02T11:43:21;94651.03;;;20.78;35.29
11692;BME280;33659;42.672;23.354;2023-05-02T11:45:49;94648.34;;;20.85;35.05
11692;BME280;33659;42.672;23.354;2023-05-02T11:48:17;94637.34;;;20.94;36.15
11692;BME280;33659;42.672;23.354;2023-05-02T11:50:46;94639.91;;;21.04;35.82
11692;BME280;33659;42.672;23.354;2023-05-02T11:53:14;94639.06;;;21.22;35.48
11692;BME280;33659;42.672;23.354;2023-05-02T11:55:45;94635.94;;;21.41;34.95
11692;BME280;33659;42.672;23.354;2023-05-02T11:58:13;94639.00;;;21.40;34.87
11692;BME280;33659;42.672;23.354;2023-05-02T12:00:42;94610.66;;;21.15;34.66
11692;BME280;33659;42.672;23.354;2023-05-02T12:03:19;94632.59;;;21.30;35.57
11692;BME280;33659;42.672;23.354;2023-05-02T12:05:46;94626.16;;;21.27;34.86
11692;BME280;33659;42.672;23.354;2023-05-02T12:08:17;94625.78;;;21.32;35.17
11692;BME280;33659;42.672;23.354;2023-05-02T12:10:44;94626.09;;;21.38;34.63
11692;BME280;33659;42.672;23.354;2023-05-02T12:13:11;94610.06;;;21.52;34.00
11692;BME280;33659;42.672;23.354;2023-05-02T12:15:38;94611.63;;;21.43;34.09
11692;BME280;33659;42.672;23.354;2023-05-02T12:18:06;94609.38;;;21.45;34.51
11692;BME280;33659;42.672;23.354;2023-05-02T12:20:34;94601.34;;;21.48;33.38
11692;BME280;33659;42.672;23.354;2023-05-02T12:23:01;94607.84;;;21.44;34.24
11692;BME280;33659;42.672;23.354;2023-05-02T12:25:31;94611.53;;;21.57;34.23
11692;BME280;33659;42.672;23.354;2023-05-02T12:27:58;94606.22;;;21.60;33.34
11692;BME280;33659;42.672;23.354;2023-05-02T12:30:26;94611.09;;;21.66;32.76
11692;BME280;33659;42.672;23.354;2023-05-02T12:32:56;94597.78;;;21.69;32.99
11692;BME280;33659;42.672;23.354;2023-05-02T12:35:25;94590.88;;;21.75;33.11
11692;BME280;33659;42.672;23.354;2023-05-02T12:37:52;94594.56;;;21.92;32.71
11692;BME280;33659;42.672;23.354;2023-05-02T12:40:20;94582.69;;;22.00;32.74
11692;BME280;33659;42.672;23.354;2023-05-02T12:42:57;94578.41;;;22.13;31.88
11692;BME280;33659;42.672;23.354;2023-05-02T12:45:25;94577.63;;;22.16;32.29
11692;BME280;33659;42.672;23.354;2023-05-02T12:47:53;94566.19;;;22.20;31.94
11692;BME280;33659;42.672;23.354;2023-05-02T12:50:20;94569.09;;;22.32;31.64
11692;BME280;33659;42.672;23.354;2023-05-02T12:53:01;94562.44;;;22.17;31.16
11692;BME280;33659;42.672;23.354;2023-05-02T12:55:28;94577.50;;;22.27;32.09
11692;BME280;33659;42.672;23.354;2023-05-02T12:58:00;94579.25;;;22.41;31.50
11692;BME280;33659;42.672;23.354;2023-05-02T13:00:27;94566.66;;;22.45;31.12
11692;BME280;33659;42.672;23.354;2023-05-02T13:02:53;94564.53;;;22.33;30.91
11692;BME280;33659;42.672;23.354;2023-05-02T13:05:20;94571.50;;;22.20;30.92